Campanya Meteocatpedra
Centenari de l'SMC: 100 anys mirant el cel

Dades de l'estació automàtica Montserrat - Sant Dimes

?
?

Resum diari

22:00 TU
Dades diàries de l'estació meteorològica
Temperatura mitjana 14.5 °C
Temperatura màxima 20.0 °C 12:49 TU
Temperatura mínima 11.1 °C 8:03 TU
Humitat relativa mitjana 80%
Precipitació acumulada 0.0 mm
Ratxa màxima del vent (6 m) 33.1 km/h - 220º 16:43 TU
Irradiació solar global 15.3 MJ/m2

El tram horari està expressat en Temps Universal (TU). Cal sumar una hora en horari d'hivern i dues en horari d'estiu per passar a l'hora oficial.

Montserrat - Sant Dimes

Metadades estació meteorològica
Municipi Monistrol de Montserrat
Comarca Bages
Altitud 916 m
Data alta 02.01.2003
Estat actual Operativa
Dades de període
Període
TU
TM
°C
TX
°C
TN
°C
HRM
%
PPT
mm
VVM (6 m)
km/h
DVM (6 m)
graus
VVX (6 m)
km/h
RS
W/m2
00:00 - 00:30 14.9 15.4 14.6 73 0.0 6.1 308 13.3 0
00:30 - 01:00 15.0 15.3 14.4 72 0.0 1.8 315 6.5 0
01:00 - 01:30 14.8 16.1 14.2 72 0.0 5.4 234 14.4 0
01:30 - 02:00 16.5 16.7 16.2 61 0.0 7.9 281 13.3 0
02:00 - 02:30 16.0 16.6 15.4 63 0.0 5.0 260 9.7 0
02:30 - 03:00 14.7 15.8 13.9 72 0.0 3.6 145 8.3 0
03:00 - 03:30 14.5 14.8 14.3 72 0.0 5.8 214 16.2 0
03:30 - 04:00 14.5 14.6 14.2 69 0.0 8.6 242 22.0 0
04:00 - 04:30 13.7 14.2 12.7 72 0.0 6.1 246 21.6 0
04:30 - 05:00 13.7 14.0 13.1 71 0.0 9.0 243 22.3 0
05:00 - 05:30 13.1 13.3 12.7 73 0.0 6.8 290 20.2 0
05:30 - 06:00 13.2 13.5 13.0 71 0.0 3.6 307 9.0 11
06:00 - 06:30 13.1 13.3 12.9 72 0.0 6.8 329 13.3 47
06:30 - 07:00 12.6 13.0 12.0 77 0.0 12.2 323 24.1 105
07:00 - 07:30 12.9 13.2 12.4 78 0.0 13.7 323 25.2 131
07:30 - 08:00 12.2 12.6 11.3 84 0.0 14.0 332 24.5 329
08:00 - 08:30 11.4 11.7 11.1 93 0.0 13.7 336 25.6 307
08:30 - 09:00 11.8 12.5 11.2 93 0.0 8.6 351 16.6 299
09:00 - 09:30 12.8 13.9 12.2 88 0.0 5.8 358 13.3 423
09:30 - 10:00 14.3 14.9 13.6 82 0.0 5.8 342 16.2 723
10:00 - 10:30 14.0 14.4 13.6 83 0.0 7.6 327 18.7 577
10:30 - 11:00 13.9 14.9 13.4 83 0.0 6.1 331 17.6 518
11:00 - 11:30 15.5 16.5 14.5 76 0.0 4.0 359 10.8 525
11:30 - 12:00 16.8 17.4 15.2 70 0.0 4.7 13 10.8 544
12:00 - 12:30 17.3 18.8 15.3 69 0.0 3.6 58 8.6 568
12:30 - 13:00 18.6 20.0 17.1 64 0.0 2.9 35 11.2 752
13:00 - 13:30 18.3 19.2 17.4 62 0.0 6.1 262 23.0 748
13:30 - 14:00 17.7 18.3 16.9 60 0.0 12.2 244 27.0 549
14:00 - 14:30 17.8 18.6 16.8 58 0.0 7.6 202 27.0 444
14:30 - 15:00 18.3 18.8 17.8 53 0.0 10.4 208 27.7 563
15:00 - 15:30 17.0 18.9 15.7 78 0.0 12.6 186 27.4 202
15:30 - 16:00 15.1 15.6 14.7 96 0.0 16.6 210 26.6 64
16:00 - 16:30 14.7 14.8 14.7 100 0.0 17.6 201 29.2 41
16:30 - 17:00 14.8 14.9 14.7 100 0.0 18.7 198 33.1 64
17:00 - 17:30 14.6 14.8 14.4 100 0.0 15.5 197 25.2 23
17:30 - 18:00 14.2 14.4 14.1 100 0.0 14.0 195 25.2 3
18:00 - 18:30 13.8 14.0 13.7 100 0.0 15.1 209 23.4 0
18:30 - 19:00 13.5 14.0 13.1 98 0.0 12.6 219 20.2 0
19:00 - 19:30 12.8 13.1 12.7 96 0.0 17.6 171 27.4 0
19:30 - 20:00 12.7 12.8 12.5 88 0.0 15.5 179 25.9 0
20:00 - 20:30 12.7 13.0 12.3 85 0.0 11.2 178 24.1 0
20:30 - 21:00 13.2 13.6 12.9 83 0.0 4.3 267 11.5 0
21:00 - 21:30 13.1 13.2 12.9 88 0.0 4.7 186 7.2 0
21:30 - 22:00 12.8 12.9 12.7 96 0.0 5.8 208 10.8 0
22:00 - 22:30 12.9 13.0 12.8 91 0.0 3.2 184 7.2 0

Les dades en taronja només han passat un control de qualitat automàtic. Resta pendent la seva validació definitiva.